createdAt,value
2023-03-30T00:02:44.288Z,11.40
2023-03-30T00:06:46.232Z,8.35
2023-03-30T00:10:48.228Z,4.90
2023-03-30T00:14:50.409Z,3.83
2023-03-30T00:18:52.125Z,8.00
2023-03-30T00:22:54.951Z,8.32
2023-03-30T00:26:56.679Z,6.63
2023-03-30T00:30:58.920Z,4.38
2023-03-30T00:35:01.352Z,8.02
2023-03-30T00:39:06.563Z,10.00
2023-03-30T00:43:12.047Z,10.82
2023-03-30T00:47:14.107Z,7.43
2023-03-30T00:51:16.359Z,8.43
2023-03-30T00:55:19.899Z,7.47
2023-03-30T00:59:21.734Z,5.13
2023-03-30T01:03:37.320Z,4.25
2023-03-30T01:07:41.313Z,3.40
2023-03-30T01:11:43.789Z,3.65
2023-03-30T01:16:24.634Z,3.42
2023-03-30T01:20:47.837Z,8.70
2023-03-30T01:25:27.348Z,8.32
2023-03-30T01:29:47.199Z,7.00
2023-03-30T01:34:34.917Z,8.20
2023-03-30T01:38:58.410Z,7.57
2023-03-30T01:43:18.192Z,4.85
2023-03-30T01:47:33.258Z,5.63
2023-03-30T01:52:05.209Z,3.33
2023-03-30T01:56:14.992Z,3.15
2023-03-30T02:00:20.350Z,4.38
2023-03-30T02:04:24.579Z,4.90
2023-03-30T02:08:29.966Z,4.50
2023-03-30T02:12:32.521Z,7.15
2023-03-30T02:16:56.240Z,4.30
2023-03-30T02:20:58.970Z,5.10
2023-03-30T02:25:00.968Z,4.55
2023-03-30T02:29:03.228Z,5.00
2023-03-30T02:33:07.484Z,4.78
2023-03-30T02:37:30.668Z,3.47
2023-03-30T02:42:00.581Z,4.05
2023-03-30T02:46:31.250Z,4.03
2023-03-30T02:51:11.020Z,5.38
2023-03-30T02:56:22.176Z,4.10
2023-03-30T03:00:46.437Z,3.88
2023-03-30T03:04:55.278Z,4.28
2023-03-30T03:09:09.484Z,5.35
2023-03-30T03:13:11.883Z,3.30
2023-03-30T03:17:22.448Z,3.00
2023-03-30T03:21:25.054Z,3.35
2023-03-30T03:25:27.448Z,3.00
2023-03-30T03:33:36.633Z,5.25
2023-03-30T03:37:44.396Z,4.00
2023-03-30T03:41:47.274Z,5.38
2023-03-30T03:45:50.428Z,5.53
2023-03-30T03:49:52.429Z,5.50
2023-03-30T03:53:54.690Z,5.70
2023-03-30T03:57:57.157Z,10.13
2023-03-30T04:01:59.488Z,8.43
2023-03-30T04:06:02.501Z,7.05
2023-03-30T04:10:06.022Z,6.97
2023-03-30T04:14:31.222Z,9.05
2023-03-30T04:18:49.075Z,12.82
2023-03-30T04:22:54.536Z,13.77
2023-03-30T04:27:28.866Z,12.55
2023-03-30T04:31:34.944Z,14.05
2023-03-30T04:36:01.946Z,15.98
2023-03-30T04:40:16.417Z,15.18
2023-03-30T04:44:44.615Z,16.90
2023-03-30T04:49:16.302Z,16.77
2023-03-30T04:53:56.253Z,15.73
2023-03-30T04:58:16.649Z,16.15
2023-03-30T05:02:38.700Z,14.27
2023-03-30T05:06:59.032Z,17.90
2023-03-30T05:11:33.036Z,18.83
2023-03-30T05:15:55.104Z,20.33
2023-03-30T05:20:22.762Z,18.10
2023-03-30T05:24:53.774Z,18.95
2023-03-30T05:29:15.325Z,19.52
2023-03-30T05:33:37.511Z,18.83
2023-03-30T05:38:07.493Z,16.10
2023-03-30T05:42:40.581Z,17.77
2023-03-30T05:46:54.928Z,19.55
2023-03-30T05:51:16.922Z,21.00
2023-03-30T05:55:49.249Z,20.35
2023-03-30T06:04:26.713Z,16.35
2023-03-30T06:08:28.873Z,15.90
2023-03-30T06:12:35.957Z,12.32
2023-03-30T06:16:40.936Z,18.90
2023-03-30T06:20:47.406Z,21.10
2023-03-30T06:24:49.797Z,18.88
2023-03-30T06:28:51.925Z,20.98
2023-03-30T06:32:53.862Z,21.33
2023-03-30T06:36:59.886Z,20.80
2023-03-30T06:41:08.389Z,19.60
2023-03-30T06:45:13.759Z,20.42
2023-03-30T06:49:16.813Z,20.27
2023-03-30T06:53:19.147Z,20.83
2023-03-30T06:57:23.079Z,20.13
2023-03-30T07:01:24.938Z,19.77
2023-03-30T07:05:52.434Z,19.48
2023-03-30T07:10:11.650Z,18.67
2023-03-30T07:14:13.999Z,19.30
2023-03-30T07:18:15.931Z,19.38
2023-03-30T07:22:18.334Z,19.25
2023-03-30T07:26:20.137Z,19.90
2023-03-30T07:30:28.770Z,18.17
2023-03-30T07:34:36.668Z,19.63
2023-03-30T07:38:39.031Z,22.00
2023-03-30T07:42:41.385Z,24.38
2023-03-30T07:46:43.569Z,21.90
2023-03-30T07:50:52.408Z,25.38
2023-03-30T07:54:57.214Z,21.40
2023-03-30T07:59:08.814Z,21.50
2023-03-30T08:03:12.448Z,19.25
2023-03-30T08:07:16.593Z,20.95
2023-03-30T08:11:19.694Z,18.77
2023-03-30T08:15:21.469Z,15.32
2023-03-30T08:19:24.884Z,21.08
2023-03-30T08:23:27.046Z,19.48
2023-03-30T08:27:28.803Z,18.45
2023-03-30T08:31:34.465Z,17.58
2023-03-30T08:35:36.238Z,13.98
2023-03-30T08:39:38.549Z,15.13
2023-03-30T08:43:49.367Z,14.02
2023-03-30T08:47:52.894Z,15.00
2023-03-30T08:51:55.517Z,13.63
2023-03-30T08:56:04.527Z,13.73
2023-03-30T09:00:12.394Z,13.77
2023-03-30T09:04:35.802Z,14.43
2023-03-30T09:08:38.000Z,13.02
2023-03-30T09:12:42.859Z,11.75
2023-03-30T09:17:05.061Z,9.63
2023-03-30T09:21:10.975Z,9.23
2023-03-30T09:25:15.472Z,8.60
2023-03-30T09:29:31.077Z,5.72
2023-03-30T09:33:51.826Z,6.90
2023-03-30T09:37:53.616Z,5.53
2023-03-30T09:42:17.070Z,4.18
2023-03-30T09:46:18.892Z,4.75
2023-03-30T09:50:26.919Z,5.55
2023-03-30T09:54:37.958Z,5.70
2023-03-30T09:58:41.505Z,4.43
2023-03-30T10:02:55.856Z,5.35
2023-03-30T10:07:02.235Z,5.70
2023-03-30T10:11:09.136Z,4.22
2023-03-30T10:15:17.515Z,4.47
2023-03-30T10:19:21.714Z,3.42
2023-03-30T10:23:33.280Z,5.18
2023-03-30T10:27:45.575Z,4.75
2023-03-30T10:31:49.875Z,4.63
2023-03-30T10:35:56.749Z,4.43
2023-03-30T10:40:01.372Z,4.35
2023-03-30T10:44:27.846Z,4.38
2023-03-30T10:48:41.821Z,3.40
2023-03-30T10:53:02.500Z,4.28
2023-03-30T10:57:12.845Z,4.40
2023-03-30T11:01:52.859Z,4.90
2023-03-30T11:06:01.642Z,4.20
2023-03-30T11:10:13.625Z,3.80
2023-03-30T11:14:25.453Z,4.40
2023-03-30T11:18:57.069Z,4.07
2023-03-30T11:23:24.637Z,5.18
2023-03-30T11:27:36.567Z,3.80
2023-03-30T11:31:56.354Z,3.97
2023-03-30T11:36:05.258Z,5.70
2023-03-30T11:40:16.557Z,6.60
2023-03-30T11:44:18.653Z,4.88
2023-03-30T11:48:41.989Z,4.25
2023-03-30T11:53:08.708Z,3.05
2023-03-30T11:57:25.607Z,2.80
2023-03-30T12:02:00.184Z,4.50
2023-03-30T12:06:40.781Z,3.45
2023-03-30T12:10:47.729Z,5.32
2023-03-30T12:19:16.134Z,3.53
2023-03-30T12:23:39.170Z,3.10
2023-03-30T12:27:58.711Z,3.40
2023-03-30T12:32:03.037Z,3.47
2023-03-30T12:36:26.246Z,3.20
2023-03-30T12:40:29.507Z,2.97
2023-03-30T12:44:40.340Z,5.20
2023-03-30T12:49:16.471Z,6.22
2023-03-30T12:53:45.764Z,6.20
2023-03-30T12:58:26.795Z,5.93
2023-03-30T13:03:17.093Z,6.72
2023-03-30T13:07:35.113Z,6.13
2023-03-30T13:12:03.838Z,5.97
2023-03-30T13:16:08.210Z,6.28
2023-03-30T13:20:29.263Z,6.85
2023-03-30T13:24:32.225Z,5.38
2023-03-30T13:29:15.203Z,6.40
2023-03-30T13:33:22.389Z,6.50
2023-03-30T13:37:27.120Z,6.85
2023-03-30T13:41:33.453Z,6.68
2023-03-30T13:45:47.983Z,6.87
2023-03-30T13:50:00.773Z,7.30
2023-03-30T13:54:07.284Z,6.43
2023-03-30T13:58:22.374Z,7.75
2023-03-30T14:02:31.681Z,6.95
2023-03-30T14:06:38.473Z,6.38
2023-03-30T14:10:40.413Z,5.07
2023-03-30T14:14:47.602Z,5.25
2023-03-30T14:18:50.013Z,3.65
2023-03-30T14:22:54.047Z,4.85
2023-03-30T14:27:06.818Z,3.92
2023-03-30T14:31:19.162Z,3.72
2023-03-30T14:35:20.992Z,3.97
2023-03-30T14:39:23.971Z,3.25
2023-03-30T14:43:30.167Z,4.00
2023-03-30T14:47:31.958Z,6.17
2023-03-30T14:51:41.528Z,5.03
2023-03-30T14:55:43.722Z,4.55
2023-03-30T14:59:49.845Z,4.95
2023-03-30T15:03:52.881Z,8.05
2023-03-30T15:07:54.868Z,4.75
2023-03-30T15:11:58.457Z,3.67
2023-03-30T15:16:01.148Z,3.78
2023-03-30T15:20:07.148Z,3.35
2023-03-30T15:24:14.739Z,4.03
2023-03-30T15:28:19.395Z,3.58
2023-03-30T15:32:29.363Z,3.60
2023-03-30T15:36:33.865Z,3.30
2023-03-30T15:40:38.515Z,2.95
2023-03-30T15:44:43.154Z,2.80
2023-03-30T15:48:53.677Z,2.30
2023-03-30T15:53:01.594Z,2.63
2023-03-30T15:57:05.507Z,2.95
2023-03-30T16:01:12.275Z,2.90
2023-03-30T16:05:20.631Z,3.03
2023-03-30T16:09:23.148Z,2.58
2023-03-30T16:13:24.938Z,2.60
2023-03-30T16:17:26.741Z,2.75
2023-03-30T16:21:28.508Z,3.00
2023-03-30T16:25:44.243Z,2.40
2023-03-30T16:29:46.744Z,2.97
2023-03-30T16:33:49.260Z,2.65
2023-03-30T16:37:51.111Z,2.72
2023-03-30T16:41:53.774Z,2.42
2023-03-30T16:45:55.541Z,2.60
2023-03-30T16:49:57.334Z,2.53
2023-03-30T16:53:59.076Z,2.20
2023-03-30T16:58:00.905Z,2.58
2023-03-30T17:02:03.442Z,2.10
2023-03-30T17:06:05.870Z,2.67
2023-03-30T17:10:28.994Z,2.83
2023-03-30T17:14:30.699Z,2.10
2023-03-30T17:18:32.556Z,2.25
2023-03-30T17:22:34.292Z,2.97
2023-03-30T17:26:36.207Z,2.67
2023-03-30T17:30:41.930Z,3.88
2023-03-30T17:34:43.735Z,2.90
2023-03-30T17:38:46.258Z,3.17
2023-03-30T17:42:48.107Z,3.22
2023-03-30T17:46:49.896Z,2.83
2023-03-30T17:50:51.655Z,2.58
2023-03-30T17:54:53.376Z,3.40
2023-03-30T17:58:55.303Z,3.08
2023-03-30T18:02:58.153Z,2.80
2023-03-30T18:06:59.900Z,3.30
2023-03-30T18:11:01.623Z,2.75
2023-03-30T18:15:03.614Z,1.73
2023-03-30T18:19:05.305Z,1.70
2023-03-30T18:23:07.667Z,1.20
2023-03-30T18:27:11.016Z,1.70
2023-03-30T18:31:12.880Z,1.13
2023-03-30T18:35:14.960Z,1.52
2023-03-30T18:39:21.557Z,1.52
2023-03-30T18:43:24.060Z,1.50
2023-03-30T18:47:26.500Z,1.95
2023-03-30T18:51:28.236Z,1.70
2023-03-30T18:55:32.364Z,2.08
2023-03-30T18:59:34.105Z,2.03
2023-03-30T19:03:35.843Z,2.00
2023-03-30T19:07:37.587Z,1.70
2023-03-30T19:11:39.390Z,1.80
2023-03-30T19:15:41.852Z,1.50
2023-03-30T19:19:43.625Z,1.67
2023-03-30T19:23:45.776Z,1.65
2023-03-30T19:28:01.990Z,1.60
2023-03-30T19:32:05.300Z,2.10
2023-03-30T19:36:08.925Z,2.03
2023-03-30T19:40:12.442Z,2.30
2023-03-30T19:44:14.203Z,2.00
2023-03-30T19:48:16.029Z,2.22
2023-03-30T19:52:17.726Z,2.40
2023-03-30T19:56:19.498Z,2.33
2023-03-30T20:00:21.496Z,2.03
2023-03-30T20:04:23.218Z,2.20
2023-03-30T20:08:25.525Z,2.30
2023-03-30T20:12:27.322Z,1.88
2023-03-30T20:16:29.997Z,2.22
2023-03-30T20:20:34.814Z,2.53
2023-03-30T20:24:38.035Z,1.67
2023-03-30T20:28:39.814Z,1.63
2023-03-30T20:32:41.542Z,3.50
2023-03-30T20:36:44.828Z,4.07
2023-03-30T20:41:04.253Z,4.90
2023-03-30T20:45:09.372Z,4.07
2023-03-30T20:49:12.964Z,4.80
2023-03-30T20:53:14.677Z,4.80
2023-03-30T20:57:16.610Z,4.72
2023-03-30T21:01:28.145Z,5.78
2023-03-30T21:05:30.236Z,5.35
2023-03-30T21:09:34.064Z,5.60
2023-03-30T21:13:36.214Z,5.65
2023-03-30T21:17:38.000Z,5.78
2023-03-30T21:21:39.774Z,6.07
2023-03-30T21:25:42.307Z,5.70
2023-03-30T21:29:44.024Z,5.72
2023-03-30T21:33:45.949Z,4.80
2023-03-30T21:37:47.651Z,4.30
2023-03-30T21:41:49.418Z,4.13
2023-03-30T21:45:56.928Z,4.47
2023-03-30T21:49:58.620Z,2.95
2023-03-30T21:54:00.612Z,3.65
2023-03-30T21:58:02.658Z,3.33
2023-03-30T22:02:04.417Z,2.50
2023-03-30T22:06:08.301Z,3.22
2023-03-30T22:10:10.409Z,3.50
2023-03-30T22:14:12.120Z,4.18
2023-03-30T22:18:16.939Z,2.78
2023-03-30T22:22:18.692Z,3.08
2023-03-30T22:26:20.928Z,2.88
2023-03-30T22:30:22.694Z,2.60
2023-03-30T22:34:24.702Z,2.38
2023-03-30T22:38:26.420Z,2.78
2023-03-30T22:42:28.159Z,3.53
2023-03-30T22:46:30.073Z,2.50
2023-03-30T22:50:33.896Z,5.15
2023-03-30T22:54:35.709Z,5.03
2023-03-30T22:58:37.828Z,3.78
2023-03-30T23:02:40.710Z,3.10
2023-03-30T23:06:43.536Z,4.80
2023-03-30T23:10:45.953Z,5.07
2023-03-30T23:14:48.162Z,4.70
2023-03-30T23:18:50.925Z,4.05
2023-03-30T23:22:52.639Z,4.55
2023-03-30T23:26:54.367Z,3.33
2023-03-30T23:30:57.763Z,3.03
2023-03-30T23:34:59.489Z,3.08
2023-03-30T23:39:01.193Z,2.67
2023-03-30T23:43:02.944Z,2.80
2023-03-30T23:47:04.813Z,3.78
2023-03-30T23:51:06.981Z,2.60
2023-03-30T23:55:08.831Z,2.47
2023-03-30T23:59:11.131Z,2.97
